sensor_id;sensor_type;location;lat;lon;timestamp;pressure;altitude;pressure_sealevel;temperature
32039;BMP280;18549;42.286;22.688;2022-10-31T00:01:10;96121.75;;;16.77
32039;BMP280;18549;42.286;22.688;2022-10-31T00:03:39;96123.44;;;16.77
32039;BMP280;18549;42.286;22.688;2022-10-31T00:06:07;96123.59;;;16.75
32039;BMP280;18549;42.286;22.688;2022-10-31T00:08:36;96121.87;;;16.76
32039;BMP280;18549;42.286;22.688;2022-10-31T00:11:03;96127.09;;;16.73
32039;BMP280;18549;42.286;22.688;2022-10-31T00:13:31;96124.75;;;16.71
32039;BMP280;18549;42.286;22.688;2022-10-31T00:15:59;96129.75;;;16.71
32039;BMP280;18549;42.286;22.688;2022-10-31T00:18:25;96124.97;;;16.68
32039;BMP280;18549;42.286;22.688;2022-10-31T00:21:00;96119.97;;;16.68
32039;BMP280;18549;42.286;22.688;2022-10-31T00:23:27;96120.09;;;16.67
32039;BMP280;18549;42.286;22.688;2022-10-31T00:26:00;96120.22;;;16.65
32039;BMP280;18549;42.286;22.688;2022-10-31T00:28:28;96116.13;;;16.64
32039;BMP280;18549;42.286;22.688;2022-10-31T00:33:53;96122.03;;;16.63
32039;BMP280;18549;42.286;22.688;2022-10-31T00:36:22;96113.63;;;16.64
32039;BMP280;18549;42.286;22.688;2022-10-31T00:38:49;96110.44;;;16.62
32039;BMP280;18549;42.286;22.688;2022-10-31T00:41:16;96110.69;;;16.59
32039;BMP280;18549;42.286;22.688;2022-10-31T00:43:43;96114.09;;;16.58
32039;BMP280;18549;42.286;22.688;2022-10-31T00:46:10;96101.84;;;16.55
32039;BMP280;18549;42.286;22.688;2022-10-31T00:48:40;96100.22;;;16.54
32039;BMP280;18549;42.286;22.688;2022-10-31T00:51:07;96102.09;;;16.52
32039;BMP280;18549;42.286;22.688;2022-10-31T00:53:38;96093.47;;;16.46
32039;BMP280;18549;42.286;22.688;2022-10-31T00:56:06;96103.38;;;16.36
32039;BMP280;18549;42.286;22.688;2022-10-31T00:58:33;96100.78;;;16.38
32039;BMP280;18549;42.286;22.688;2022-10-31T01:00:59;96100.88;;;16.36
32039;BMP280;18549;42.286;22.688;2022-10-31T01:03:27;96111.28;;;16.32
32039;BMP280;18549;42.286;22.688;2022-10-31T01:05:56;96121.06;;;16.24
32039;BMP280;18549;42.286;22.688;2022-10-31T01:08:23;96108.34;;;16.16
32039;BMP280;18549;42.286;22.688;2022-10-31T01:11:00;96121.28;;;16.10
32039;BMP280;18549;42.286;22.688;2022-10-31T01:13:27;96122.88;;;16.11
32039;BMP280;18549;42.286;22.688;2022-10-31T01:15:54;96120.63;;;16.08
32039;BMP280;18549;42.286;22.688;2022-10-31T01:18:21;96119.94;;;16.06
32039;BMP280;18549;42.286;22.688;2022-10-31T01:20:57;96123.91;;;16.09
32039;BMP280;18549;42.286;22.688;2022-10-31T01:23:24;96122.09;;;16.11
32039;BMP280;18549;42.286;22.688;2022-10-31T01:26:00;96122.88;;;16.11
32039;BMP280;18549;42.286;22.688;2022-10-31T01:28:27;96121.28;;;16.10
32039;BMP280;18549;42.286;22.688;2022-10-31T01:30:54;96131.06;;;16.13
32039;BMP280;18549;42.286;22.688;2022-10-31T01:33:21;96122.88;;;16.11
32039;BMP280;18549;42.286;22.688;2022-10-31T01:35:47;96111.19;;;16.01
32039;BMP280;18549;42.286;22.688;2022-10-31T01:38:14;96113.03;;;15.99
32039;BMP280;18549;42.286;22.688;2022-10-31T01:40:41;96109.59;;;16.00
32039;BMP280;18549;42.286;22.688;2022-10-31T01:43:13;96114.37;;;16.03
32039;BMP280;18549;42.286;22.688;2022-10-31T01:45:40;96106.75;;;16.04
32039;BMP280;18549;42.286;22.688;2022-10-31T01:48:12;96099.13;;;16.06
32039;BMP280;18549;42.286;22.688;2022-10-31T01:50:40;96105.16;;;16.03
32039;BMP280;18549;42.286;22.688;2022-10-31T01:53:09;96104.72;;;15.98
32039;BMP280;18549;42.286;22.688;2022-10-31T01:55:40;96106.44;;;15.98
32039;BMP280;18549;42.286;22.688;2022-10-31T01:58:13;96108.81;;;15.99
32039;BMP280;18549;42.286;22.688;2022-10-31T02:00:45;96110.53;;;15.99
32039;BMP280;18549;42.286;22.688;2022-10-31T02:03:14;96109.72;;;15.98
32039;BMP280;18549;42.286;22.688;2022-10-31T02:05:42;96124.06;;;15.96
32039;BMP280;18549;42.286;22.688;2022-10-31T02:08:16;96118.47;;;15.93
32039;BMP280;18549;42.286;22.688;2022-10-31T02:10:43;96121.13;;;15.91
32039;BMP280;18549;42.286;22.688;2022-10-31T02:13:13;96120.31;;;15.91
32039;BMP280;18549;42.286;22.688;2022-10-31T02:15:44;96123.72;;;15.90
32039;BMP280;18549;42.286;22.688;2022-10-31T02:18:15;96132.16;;;15.89
32039;BMP280;18549;42.286;22.688;2022-10-31T02:21:02;96118.84;;;15.88
32039;BMP280;18549;42.286;22.688;2022-10-31T02:26:51;96115.44;;;15.79
32039;BMP280;18549;42.286;22.688;2022-10-31T02:29:47;96123.06;;;15.77
32039;BMP280;18549;42.286;22.688;2022-10-31T02:32:21;96121.47;;;15.76
32039;BMP280;18549;42.286;22.688;2022-10-31T02:34:57;96116.38;;;15.78
32039;BMP280;18549;42.286;22.688;2022-10-31T02:37:29;96118.88;;;15.78
32039;BMP280;18549;42.286;22.688;2022-10-31T02:40:05;96113.87;;;15.78
32039;BMP280;18549;42.286;22.688;2022-10-31T02:42:41;96106.37;;;15.78
32039;BMP280;18549;42.286;22.688;2022-10-31T02:45:14;96112.25;;;15.77
32039;BMP280;18549;42.286;22.688;2022-10-31T02:47:45;96114.75;;;15.77
32039;BMP280;18549;42.286;22.688;2022-10-31T02:50:19;96111.47;;;15.76
32039;BMP280;18549;42.286;22.688;2022-10-31T02:52:50;96107.50;;;15.74
32039;BMP280;18549;42.286;22.688;2022-10-31T02:55:44;96110.78;;;15.74
32039;BMP280;18549;42.286;22.688;2022-10-31T02:58:16;96114.31;;;15.72
32039;BMP280;18549;42.286;22.688;2022-10-31T03:00:53;96115.91;;;15.73
32039;BMP280;18549;42.286;22.688;2022-10-31T03:03:30;96112.84;;;15.69
32039;BMP280;18549;42.286;22.688;2022-10-31T03:06:03;96115.44;;;15.68
32039;BMP280;18549;42.286;22.688;2022-10-31T03:08:37;96119.78;;;15.66
32039;BMP280;18549;42.286;22.688;2022-10-31T03:11:08;96125.69;;;15.65
32039;BMP280;18549;42.286;22.688;2022-10-31T03:13:40;96122.97;;;15.57
32039;BMP280;18549;42.286;22.688;2022-10-31T03:16:13;96129.09;;;15.53
32039;BMP280;18549;42.286;22.688;2022-10-31T03:18:45;96130.81;;;15.52
32039;BMP280;18549;42.286;22.688;2022-10-31T03:21:14;96141.12;;;15.48
32039;BMP280;18549;42.286;22.688;2022-10-31T03:23:44;96138.75;;;15.47
32039;BMP280;18549;42.286;22.688;2022-10-31T03:26:15;96142.03;;;15.47
32039;BMP280;18549;42.286;22.688;2022-10-31T03:28:45;96143.75;;;15.47
32039;BMP280;18549;42.286;22.688;2022-10-31T03:31:16;96150.53;;;15.45
32039;BMP280;18549;42.286;22.688;2022-10-31T03:33:46;96142.38;;;15.43
32039;BMP280;18549;42.286;22.688;2022-10-31T03:36:15;96148.19;;;15.43
32039;BMP280;18549;42.286;22.688;2022-10-31T03:38:43;96147.38;;;15.43
32039;BMP280;18549;42.286;22.688;2022-10-31T03:41:17;96145.00;;;15.41
32039;BMP280;18549;42.286;22.688;2022-10-31T03:43:50;96146.81;;;15.39
32039;BMP280;18549;42.286;22.688;2022-10-31T03:46:19;96149.31;;;15.39
32039;BMP280;18549;42.286;22.688;2022-10-31T03:48:47;96148.62;;;15.37
32039;BMP280;18549;42.286;22.688;2022-10-31T03:51:19;96150.22;;;15.38
32039;BMP280;18549;42.286;22.688;2022-10-31T03:54:03;96147.03;;;15.36
32039;BMP280;18549;42.286;22.688;2022-10-31T03:56:36;96150.44;;;15.35
32039;BMP280;18549;42.286;22.688;2022-10-31T03:59:07;96150.31;;;15.37
32039;BMP280;18549;42.286;22.688;2022-10-31T04:01:39;96150.56;;;15.34
32039;BMP280;18549;42.286;22.688;2022-10-31T04:04:10;96156.34;;;15.34
32039;BMP280;18549;42.286;22.688;2022-10-31T04:06:39;96159.72;;;15.33
32039;BMP280;18549;42.286;22.688;2022-10-31T04:09:09;96155.44;;;15.35
32039;BMP280;18549;42.286;22.688;2022-10-31T04:11:44;96160.66;;;15.32
32039;BMP280;18549;42.286;22.688;2022-10-31T04:14:12;96162.69;;;15.27
32039;BMP280;18549;42.286;22.688;2022-10-31T04:16:40;96168.59;;;15.26
32039;BMP280;18549;42.286;22.688;2022-10-31T04:19:11;96156.78;;;15.28
32039;BMP280;18549;42.286;22.688;2022-10-31T04:21:40;96171.06;;;15.26
32039;BMP280;18549;42.286;22.688;2022-10-31T04:24:09;96179.50;;;15.25
32039;BMP280;18549;42.286;22.688;2022-10-31T04:26:36;96182.69;;;15.27
32039;BMP280;18549;42.286;22.688;2022-10-31T04:29:03;96181.53;;;15.31
32039;BMP280;18549;42.286;22.688;2022-10-31T04:31:30;96181.53;;;15.31
32039;BMP280;18549;42.286;22.688;2022-10-31T04:33:57;96185.97;;;15.28
32039;BMP280;18549;42.286;22.688;2022-10-31T04:36:25;96193.22;;;15.31
32039;BMP280;18549;42.286;22.688;2022-10-31T04:38:52;96195.84;;;15.29
32039;BMP280;18549;42.286;22.688;2022-10-31T04:41:19;96183.56;;;15.26
32039;BMP280;18549;42.286;22.688;2022-10-31T04:43:45;96194.03;;;15.20
32039;BMP280;18549;42.286;22.688;2022-10-31T04:46:14;96192.63;;;15.17
32039;BMP280;18549;42.286;22.688;2022-10-31T04:48:41;96193.16;;;15.09
32039;BMP280;18549;42.286;22.688;2022-10-31T04:51:09;96193.06;;;15.11
32039;BMP280;18549;42.286;22.688;2022-10-31T04:53:43;96198.34;;;15.06
32039;BMP280;18549;42.286;22.688;2022-10-31T04:56:10;96202.56;;;15.06
32039;BMP280;18549;42.286;22.688;2022-10-31T04:58:43;96201.75;;;15.05
32039;BMP280;18549;42.286;22.688;2022-10-31T05:01:10;96195.97;;;15.05
32039;BMP280;18549;42.286;22.688;2022-10-31T05:03:37;96193.25;;;15.08
32039;BMP280;18549;42.286;22.688;2022-10-31T05:06:05;96197.37;;;15.09
32039;BMP280;18549;42.286;22.688;2022-10-31T05:08:32;96199.97;;;15.07
32039;BMP280;18549;42.286;22.688;2022-10-31T05:11:01;96194.19;;;15.07
32039;BMP280;18549;42.286;22.688;2022-10-31T05:13:28;96192.47;;;15.07
32039;BMP280;18549;42.286;22.688;2022-10-31T05:15:55;96199.19;;;15.07
32039;BMP280;18549;42.286;22.688;2022-10-31T05:18:22;96194.97;;;15.07
32039;BMP280;18549;42.286;22.688;2022-10-31T05:20:53;96194.19;;;15.07
32039;BMP280;18549;42.286;22.688;2022-10-31T05:23:20;96203.34;;;15.06
32039;BMP280;18549;42.286;22.688;2022-10-31T05:25:47;96198.72;;;15.02
32039;BMP280;18549;42.286;22.688;2022-10-31T05:28:16;96195.28;;;15.03
32039;BMP280;18549;42.286;22.688;2022-10-31T05:30:42;96205.19;;;15.04
32039;BMP280;18549;42.286;22.688;2022-10-31T05:33:09;96203.56;;;15.03
32039;BMP280;18549;42.286;22.688;2022-10-31T05:35:36;96207.78;;;15.03
32039;BMP280;18549;42.286;22.688;2022-10-31T05:38:03;96204.38;;;15.04
32039;BMP280;18549;42.286;22.688;2022-10-31T05:40:30;96207.19;;;14.99
32039;BMP280;18549;42.286;22.688;2022-10-31T05:43:00;96209.12;;;14.96
32039;BMP280;18549;42.286;22.688;2022-10-31T05:45:28;96218.50;;;14.92
32039;BMP280;18549;42.286;22.688;2022-10-31T05:47:57;96227.22;;;14.87
32039;BMP280;18549;42.286;22.688;2022-10-31T05:50:25;96229.84;;;14.85
32039;BMP280;18549;42.286;22.688;2022-10-31T05:52:57;96234.94;;;14.84
32039;BMP280;18549;42.286;22.688;2022-10-31T05:55:25;96226.53;;;14.85
32039;BMP280;18549;42.286;22.688;2022-10-31T05:57:53;96236.66;;;14.84
32039;BMP280;18549;42.286;22.688;2022-10-31T06:00:24;96231.28;;;14.77
32039;BMP280;18549;42.286;22.688;2022-10-31T06:02:59;96245.94;;;14.82
32039;BMP280;18549;42.286;22.688;2022-10-31T06:05:26;96242.31;;;14.85
32039;BMP280;18549;42.286;22.688;2022-10-31T06:07:53;96248.59;;;14.91
32039;BMP280;18549;42.286;22.688;2022-10-31T06:10:20;96249.84;;;14.96
32039;BMP280;18549;42.286;22.688;2022-10-31T06:12:47;96248.12;;;14.97
32039;BMP280;18549;42.286;22.688;2022-10-31T06:15:15;96252.25;;;14.98
32039;BMP280;18549;42.286;22.688;2022-10-31T06:17:42;96250.44;;;15.00
32039;BMP280;18549;42.286;22.688;2022-10-31T06:20:11;96252.72;;;15.03
32039;BMP280;18549;42.286;22.688;2022-10-31T06:22:38;96251.78;;;15.04
32039;BMP280;18549;42.286;22.688;2022-10-31T06:25:05;96252.50;;;15.06
32039;BMP280;18549;42.286;22.688;2022-10-31T06:27:31;96252.41;;;15.07
32039;BMP280;18549;42.286;22.688;2022-10-31T06:29:59;96246.38;;;15.10
32039;BMP280;18549;42.286;22.688;2022-10-31T06:32:25;96248.69;;;15.13
32039;BMP280;18549;42.286;22.688;2022-10-31T06:34:55;96241.78;;;15.16
32039;BMP280;18549;42.286;22.688;2022-10-31T06:37:23;96253.03;;;15.21
32039;BMP280;18549;42.286;22.688;2022-10-31T06:39:50;96256.00;;;15.26
32039;BMP280;18549;42.286;22.688;2022-10-31T06:42:17;96259.88;;;15.30
32039;BMP280;18549;42.286;22.688;2022-10-31T06:44:44;96257.84;;;15.35
32039;BMP280;18549;42.286;22.688;2022-10-31T06:47:11;96251.63;;;15.41
32039;BMP280;18549;42.286;22.688;2022-10-31T06:49:38;96264.44;;;15.47
32039;BMP280;18549;42.286;22.688;2022-10-31T06:52:06;96259.03;;;15.53
32039;BMP280;18549;42.286;22.688;2022-10-31T06:54:34;96260.16;;;15.60
32039;BMP280;18549;42.286;22.688;2022-10-31T06:57:01;96256.56;;;15.64
32039;BMP280;18549;42.286;22.688;2022-10-31T06:59:30;96258.72;;;15.68
32039;BMP280;18549;42.286;22.688;2022-10-31T07:01:59;96261.78;;;15.72
32039;BMP280;18549;42.286;22.688;2022-10-31T07:04:25;96252.47;;;15.74
32039;BMP280;18549;42.286;22.688;2022-10-31T07:06:53;96258.84;;;15.78
32039;BMP280;18549;42.286;22.688;2022-10-31T07:09:20;96243.72;;;15.79
32039;BMP280;18549;42.286;22.688;2022-10-31T07:11:51;96250.09;;;15.83
32039;BMP280;18549;42.286;22.688;2022-10-31T07:14:19;96250.66;;;15.86
32039;BMP280;18549;42.286;22.688;2022-10-31T07:16:48;96248.16;;;15.86
32039;BMP280;18549;42.286;22.688;2022-10-31T07:19:15;96246.13;;;15.91
32039;BMP280;18549;42.286;22.688;2022-10-31T07:21:41;96254.75;;;15.98
32039;BMP280;18549;42.286;22.688;2022-10-31T07:24:08;96248.50;;;16.04
32039;BMP280;18549;42.286;22.688;2022-10-31T07:26:35;96254.75;;;16.09
32039;BMP280;18549;42.286;22.688;2022-10-31T07:29:03;96250.22;;;16.14
32039;BMP280;18549;42.286;22.688;2022-10-31T07:31:30;96245.91;;;16.16
32039;BMP280;18549;42.286;22.688;2022-10-31T07:33:57;96253.06;;;16.20
32039;BMP280;18549;42.286;22.688;2022-10-31T07:36:27;96248.63;;;16.24
32039;BMP280;18549;42.286;22.688;2022-10-31T07:38:54;96245.00;;;16.28
32039;BMP280;18549;42.286;22.688;2022-10-31T07:41:21;96233.84;;;16.32
32039;BMP280;18549;42.286;22.688;2022-10-31T07:43:48;96240.97;;;16.36
32039;BMP280;18549;42.286;22.688;2022-10-31T07:46:16;96243.13;;;16.41
32039;BMP280;18549;42.286;22.688;2022-10-31T07:48:43;96243.59;;;16.46
32039;BMP280;18549;42.286;22.688;2022-10-31T07:51:10;96243.00;;;16.53
32039;BMP280;18549;42.286;22.688;2022-10-31T07:53:37;96245.03;;;16.59
32039;BMP280;18549;42.286;22.688;2022-10-31T07:56:04;96236.28;;;16.64
32039;BMP280;18549;42.286;22.688;2022-10-31T07:58:31;96240.69;;;16.72
32039;BMP280;18549;42.286;22.688;2022-10-31T08:00:59;96239.06;;;16.82
32039;BMP280;18549;42.286;22.688;2022-10-31T08:03:27;96238.47;;;16.89
32039;BMP280;18549;42.286;22.688;2022-10-31T08:05:53;96240.06;;;16.90
32039;BMP280;18549;42.286;22.688;2022-10-31T08:08:21;96231.25;;;16.95
32039;BMP280;18549;42.286;22.688;2022-10-31T08:10:52;96223.03;;;17.04
32039;BMP280;18549;42.286;22.688;2022-10-31T08:13:19;96227.22;;;17.15
32039;BMP280;18549;42.286;22.688;2022-10-31T08:15:46;96223.75;;;17.26
32039;BMP280;18549;42.286;22.688;2022-10-31T08:18:16;96225.38;;;17.37
32039;BMP280;18549;42.286;22.688;2022-10-31T08:20:44;96217.81;;;17.48
32039;BMP280;18549;42.286;22.688;2022-10-31T08:23:12;96204.41;;;17.58
32039;BMP280;18549;42.286;22.688;2022-10-31T08:25:39;96203.69;;;17.67
32039;BMP280;18549;42.286;22.688;2022-10-31T08:28:09;96203.72;;;17.76
32039;BMP280;18549;42.286;22.688;2022-10-31T08:30:37;96197.13;;;17.84
32039;BMP280;18549;42.286;22.688;2022-10-31T08:33:09;96196.94;;;17.97
32039;BMP280;18549;42.286;22.688;2022-10-31T08:35:36;96181.81;;;18.08
32039;BMP280;18549;42.286;22.688;2022-10-31T08:38:05;96185.25;;;18.16
32039;BMP280;18549;42.286;22.688;2022-10-31T08:40:33;96186.72;;;18.28
32039;BMP280;18549;42.286;22.688;2022-10-31T08:43:02;96192.31;;;18.41
32039;BMP280;18549;42.286;22.688;2022-10-31T08:45:31;96187.84;;;18.53
32039;BMP280;18549;42.286;22.688;2022-10-31T08:47:58;96182.69;;;18.64
32039;BMP280;18549;42.286;22.688;2022-10-31T08:50:26;96183.91;;;18.79
32039;BMP280;18549;42.286;22.688;2022-10-31T08:52:53;96192.38;;;18.87
32039;BMP280;18549;42.286;22.688;2022-10-31T08:55:25;96193.69;;;19.01
32039;BMP280;18549;42.286;22.688;2022-10-31T08:57:54;96204.53;;;19.11
32039;BMP280;18549;42.286;22.688;2022-10-31T09:00:21;96194.06;;;19.24
32039;BMP280;18549;42.286;22.688;2022-10-31T09:02:54;96187.03;;;19.37
32039;BMP280;18549;42.286;22.688;2022-10-31T09:05:21;96190.31;;;19.47
32039;BMP280;18549;42.286;22.688;2022-10-31T09:07:49;96187.00;;;19.56
32039;BMP280;18549;42.286;22.688;2022-10-31T09:10:16;96194.34;;;19.67
32039;BMP280;18549;42.286;22.688;2022-10-31T09:12:45;96188.78;;;19.73
32039;BMP280;18549;42.286;22.688;2022-10-31T09:15:14;96191.28;;;19.82
32039;BMP280;18549;42.286;22.688;2022-10-31T09:17:46;96182.63;;;19.94
32039;BMP280;18549;42.286;22.688;2022-10-31T09:20:13;96186.59;;;19.96
32039;BMP280;18549;42.286;22.688;2022-10-31T09:22:40;96175.41;;;20.08
32039;BMP280;18549;42.286;22.688;2022-10-31T09:25:07;96173.78;;;20.17
32039;BMP280;18549;42.286;22.688;2022-10-31T09:27:36;96171.50;;;20.23
32039;BMP280;18549;42.286;22.688;2022-10-31T09:30:05;96171.31;;;20.34
32039;BMP280;18549;42.286;22.688;2022-10-31T09:32:34;96171.94;;;20.36
32039;BMP280;18549;42.286;22.688;2022-10-31T09:35:08;96176.94;;;20.45
32039;BMP280;18549;42.286;22.688;2022-10-31T09:37:35;96166.44;;;20.50
32039;BMP280;18549;42.286;22.688;2022-10-31T09:40:02;96166.87;;;20.62
32039;BMP280;18549;42.286;22.688;2022-10-31T09:42:48;96166.16;;;20.70
32039;BMP280;18549;42.286;22.688;2022-10-31T09:45:25;96161.69;;;20.81
32039;BMP280;18549;42.286;22.688;2022-10-31T09:48:13;96163.78;;;20.85
32039;BMP280;18549;42.286;22.688;2022-10-31T09:50:45;96158.97;;;20.92
32039;BMP280;18549;42.286;22.688;2022-10-31T09:53:22;96152.25;;;21.00
32039;BMP280;18549;42.286;22.688;2022-10-31T09:55:51;96161.16;;;21.12
32039;BMP280;18549;42.286;22.688;2022-10-31T09:58:20;96145.37;;;21.27
32039;BMP280;18549;42.286;22.688;2022-10-31T10:00:58;96150.03;;;21.40
32039;BMP280;18549;42.286;22.688;2022-10-31T10:03:33;96143.00;;;21.51
32039;BMP280;18549;42.286;22.688;2022-10-31T10:06:06;96142.59;;;21.63
32039;BMP280;18549;42.286;22.688;2022-10-31T10:08:37;96132.72;;;21.78
32039;BMP280;18549;42.286;22.688;2022-10-31T10:11:18;96134.50;;;21.93
32039;BMP280;18549;42.286;22.688;2022-10-31T10:14:01;96134.09;;;22.05
32039;BMP280;18549;42.286;22.688;2022-10-31T10:16:47;96128.16;;;22.22
32039;BMP280;18549;42.286;22.688;2022-10-31T10:19:30;96124.88;;;22.29
32039;BMP280;18549;42.286;22.688;2022-10-31T10:22:04;96123.28;;;22.36
32039;BMP280;18549;42.286;22.688;2022-10-31T10:24:48;96121.91;;;22.42
32039;BMP280;18549;42.286;22.688;2022-10-31T10:27:29;96116.88;;;22.57
32039;BMP280;18549;42.286;22.688;2022-10-31T10:30:04;96110.84;;;22.66
32039;BMP280;18549;42.286;22.688;2022-10-31T10:32:42;96116.53;;;22.68
32039;BMP280;18549;42.286;22.688;2022-10-31T10:35:17;96110.84;;;22.82
32039;BMP280;18549;42.286;22.688;2022-10-31T10:37:46;96115.31;;;22.88
32039;BMP280;18549;42.286;22.688;2022-10-31T10:40:17;96104.72;;;23.00
32039;BMP280;18549;42.286;22.688;2022-10-31T10:42:45;96113.72;;;23.11
32039;BMP280;18549;42.286;22.688;2022-10-31T10:45:34;96116.56;;;23.23
32039;BMP280;18549;42.286;22.688;2022-10-31T10:48:27;96107.63;;;23.43
32039;BMP280;18549;42.286;22.688;2022-10-31T10:50:57;96104.31;;;23.58
32039;BMP280;18549;42.286;22.688;2022-10-31T10:53:46;96097.78;;;23.72
32039;BMP280;18549;42.286;22.688;2022-10-31T10:56:35;96087.12;;;23.84
32039;BMP280;18549;42.286;22.688;2022-10-31T10:59:04;96092.44;;;23.97
32039;BMP280;18549;42.286;22.688;2022-10-31T11:01:35;96096.97;;;24.09
32039;BMP280;18549;42.286;22.688;2022-10-31T11:04:21;96087.09;;;24.22
32039;BMP280;18549;42.286;22.688;2022-10-31T11:07:01;96080.41;;;24.29
32039;BMP280;18549;42.286;22.688;2022-10-31T11:09:28;96086.53;;;24.34
32039;BMP280;18549;42.286;22.688;2022-10-31T11:11:56;96083.97;;;24.42
32039;BMP280;18549;42.286;22.688;2022-10-31T11:14:24;96082.50;;;24.48
32039;BMP280;18549;42.286;22.688;2022-10-31T11:16:55;96081.03;;;24.53
32039;BMP280;18549;42.286;22.688;2022-10-31T11:19:36;96078.09;;;24.64
32039;BMP280;18549;42.286;22.688;2022-10-31T11:22:19;96066.94;;;24.73
32039;BMP280;18549;42.286;22.688;2022-10-31T11:24:46;96057.69;;;24.80
32039;BMP280;18549;42.286;22.688;2022-10-31T11:27:25;96063.16;;;24.91
32039;BMP280;18549;42.286;22.688;2022-10-31T11:29:52;96057.38;;;24.97
32039;BMP280;18549;42.286;22.688;2022-10-31T11:32:35;96052.50;;;24.95
32039;BMP280;18549;42.286;22.688;2022-10-31T11:35:13;96051.34;;;24.98
32039;BMP280;18549;42.286;22.688;2022-10-31T11:37:44;96057.75;;;25.08
32039;BMP280;18549;42.286;22.688;2022-10-31T11:40:17;96049.28;;;25.16
32039;BMP280;18549;42.286;22.688;2022-10-31T11:42:44;96045.94;;;25.01
32039;BMP280;18549;42.286;22.688;2022-10-31T11:45:15;96053.13;;;25.12
32039;BMP280;18549;42.286;22.688;2022-10-31T11:47:46;96057.06;;;25.14
32039;BMP280;18549;42.286;22.688;2022-10-31T11:50:20;96046.28;;;25.12
32039;BMP280;18549;42.286;22.688;2022-10-31T11:52:49;96048.47;;;25.01
32039;BMP280;18549;42.286;22.688;2022-10-31T11:55:29;96048.97;;;24.96
32039;BMP280;18549;42.286;22.688;2022-10-31T11:57:57;96053.03;;;24.83
32039;BMP280;18549;42.286;22.688;2022-10-31T12:00:26;96050.22;;;24.78
32039;BMP280;18549;42.286;22.688;2022-10-31T12:03:10;96041.97;;;24.62
32039;BMP280;18549;42.286;22.688;2022-10-31T12:05:44;96048.94;;;24.46
32039;BMP280;18549;42.286;22.688;2022-10-31T12:08:13;96046.50;;;24.30
32039;BMP280;18549;42.286;22.688;2022-10-31T12:10:47;96039.97;;;24.13
32039;BMP280;18549;42.286;22.688;2022-10-31T12:13:37;96052.37;;;24.00
32039;BMP280;18549;42.286;22.688;2022-10-31T12:16:11;96045.50;;;23.86
32039;BMP280;18549;42.286;22.688;2022-10-31T12:18:51;96043.81;;;23.71
32039;BMP280;18549;42.286;22.688;2022-10-31T12:21:44;96046.88;;;23.59
32039;BMP280;18549;42.286;22.688;2022-10-31T12:24:27;96043.28;;;23.53
32039;BMP280;18549;42.286;22.688;2022-10-31T12:27:06;96036.81;;;23.43
32039;BMP280;18549;42.286;22.688;2022-10-31T12:29:50;96038.56;;;23.35
32039;BMP280;18549;42.286;22.688;2022-10-31T12:32:28;96031.78;;;23.27
32039;BMP280;18549;42.286;22.688;2022-10-31T12:35:09;96024.34;;;23.34
32039;BMP280;18549;42.286;22.688;2022-10-31T12:38:09;96031.50;;;23.30
32039;BMP280;18549;42.286;22.688;2022-10-31T12:40:55;96026.25;;;23.32
32039;BMP280;18549;42.286;22.688;2022-10-31T12:43:35;96029.25;;;23.27
32039;BMP280;18549;42.286;22.688;2022-10-31T12:46:04;96040.00;;;23.29
32039;BMP280;18549;42.286;22.688;2022-10-31T12:48:56;96034.94;;;23.29
32039;BMP280;18549;42.286;22.688;2022-10-31T12:51:35;96044.44;;;23.27
32039;BMP280;18549;42.286;22.688;2022-10-31T12:54:32;96041.59;;;23.30
32039;BMP280;18549;42.286;22.688;2022-10-31T12:57:11;96042.56;;;23.21
32039;BMP280;18549;42.286;22.688;2022-10-31T12:59:43;96052.03;;;23.27
32039;BMP280;18549;42.286;22.688;2022-10-31T13:02:18;96050.47;;;23.26
32039;BMP280;18549;42.286;22.688;2022-10-31T13:04:49;96052.81;;;23.28
32039;BMP280;18549;42.286;22.688;2022-10-31T13:07:23;96048.09;;;23.25
32039;BMP280;18549;42.286;22.688;2022-10-31T13:09:56;96048.75;;;23.19
32039;BMP280;18549;42.286;22.688;2022-10-31T13:12:27;96056.94;;;23.21
32039;BMP280;18549;42.286;22.688;2022-10-31T13:14:58;96051.41;;;23.25
32039;BMP280;18549;42.286;22.688;2022-10-31T13:17:30;96049.50;;;23.27
32039;BMP280;18549;42.286;22.688;2022-10-31T13:20:17;96052.03;;;23.27
32039;BMP280;18549;42.286;22.688;2022-10-31T13:22:49;96061.56;;;23.17
32039;BMP280;18549;42.286;22.688;2022-10-31T13:25:22;96057.75;;;23.21
32039;BMP280;18549;42.286;22.688;2022-10-31T13:27:54;96062.63;;;23.23
32039;BMP280;18549;42.286;22.688;2022-10-31T13:30:23;96060.28;;;23.21
32039;BMP280;18549;42.286;22.688;2022-10-31T13:32:54;96064.38;;;23.22
32039;BMP280;18549;42.286;22.688;2022-10-31T13:35:31;96052.37;;;23.24
32039;BMP280;18549;42.286;22.688;2022-10-31T13:38:09;96064.03;;;23.25
32039;BMP280;18549;42.286;22.688;2022-10-31T13:40:44;96067.19;;;23.27
32039;BMP280;18549;42.286;22.688;2022-10-31T13:43:22;96066.91;;;23.22
32039;BMP280;18549;42.286;22.688;2022-10-31T13:45:54;96066.59;;;23.17
32039;BMP280;18549;42.286;22.688;2022-10-31T13:48:37;96066.91;;;23.22
32039;BMP280;18549;42.286;22.688;2022-10-31T13:51:09;96061.22;;;23.20
32039;BMP280;18549;42.286;22.688;2022-10-31T13:53:44;96064.72;;;23.19
32039;BMP280;18549;42.286;22.688;2022-10-31T13:56:17;96066.59;;;23.17
32039;BMP280;18549;42.286;22.688;2022-10-31T13:58:58;96065.97;;;23.16
32039;BMP280;18549;42.286;22.688;2022-10-31T14:01:26;96066.59;;;23.17
32039;BMP280;18549;42.286;22.688;2022-10-31T14:04:00;96069.09;;;23.25
32039;BMP280;18549;42.286;22.688;2022-10-31T14:06:42;96065.16;;;23.31
32039;BMP280;18549;42.286;22.688;2022-10-31T14:09:22;96067.34;;;23.34
32039;BMP280;18549;42.286;22.688;2022-10-31T14:11:51;96062.44;;;23.32
32039;BMP280;18549;42.286;22.688;2022-10-31T14:14:19;96062.28;;;23.42
32039;BMP280;18549;42.286;22.688;2022-10-31T14:16:54;96058.59;;;23.52
32039;BMP280;18549;42.286;22.688;2022-10-31T14:19:21;96064.28;;;23.62
32039;BMP280;18549;42.286;22.688;2022-10-31T14:21:50;96063.34;;;23.63
32039;BMP280;18549;42.286;22.688;2022-10-31T14:24:32;96055.56;;;23.64
32039;BMP280;18549;42.286;22.688;2022-10-31T14:27:34;96057.50;;;23.62